Time;durP1;ratioP1;P1;durP2;ratioP2;P2;SDS_P1;SDS_P2;PMS_P1;PMS_P2;Temp;Humidity;BMP_temperature;BMP_pressure;BME280_temperature;BME280_humidity;BME280_pressure;Samples;Min_cycle;Max_cycle;Signal;HPM_P1;HPM_P2
2022/04/03 00:00:23;;;;;;;0.20;0.20;;;;;;;-143.85;100.00;70650.75;5035046;28;20083;-89
2022/04/03 00:02:49;;;;;;;0.40;0.40;;;;;;;-143.85;100.00;70650.75;5034991;28;20021;-86
2022/04/03 00:05:14;;;;;;;0.60;0.60;;;;;;;-143.85;100.00;70650.75;5036036;28;20096;-88
2022/04/03 00:07:40;;;;;;;0.20;0.20;;;;;;;-143.85;100.00;70650.75;5034708;28;20107;-88
2022/04/03 00:10:06;;;;;;;0.20;0.20;;;;;;;-143.85;100.00;70650.75;5034962;28;20036;-88
2022/04/03 00:12:32;;;;;;;0.10;0.10;;;;;;;-143.85;100.00;70650.75;5034778;28;20029;-88
2022/04/03 00:14:57;;;;;;;0.30;0.30;;;;;;;-143.85;100.00;70650.75;5035542;28;20025;-87
2022/04/03 00:17:23;;;;;;;1.55;0.73;;;;;;;-143.85;100.00;70650.75;5034924;28;20491;-88
2022/04/03 00:19:48;;;;;;;1.33;0.35;;;;;;;-143.85;100.00;70650.75;5034328;28;20029;-88
2022/04/03 00:22:14;;;;;;;0.45;0.32;;;;;;;-143.85;100.00;70650.75;5035696;28;20092;-88
2022/04/03 00:24:41;;;;;;;0.20;0.20;;;;;;;-143.85;100.00;70650.75;5034472;28;20055;-88
2022/04/03 00:27:07;;;;;;;0.43;0.43;;;;;;;-143.85;100.00;70650.75;5034341;28;20535;-88
2022/04/03 00:29:33;;;;;;;0.47;0.47;;;;;;;-143.85;100.00;70650.75;5034414;28;20029;-88
2022/04/03 00:31:58;;;;;;;0.20;0.20;;;;;;;-143.85;100.00;70650.75;5034159;28;20492;-88
2022/04/03 00:34:24;;;;;;;0.40;0.40;;;;;;;-143.85;100.00;70650.75;5035430;28;20021;-88
2022/04/03 00:36:49;;;;;;;0.88;0.88;;;;;;;-143.85;100.00;70650.75;5034430;28;20032;-88
2022/04/03 00:39:15;;;;;;;0.30;0.30;;;;;;;-143.85;100.00;70650.75;5035441;28;20025;-88
2022/04/03 00:41:41;;;;;;;2.40;0.32;;;;;;;-143.85;100.00;70650.75;5033985;28;20029;-88
2022/04/03 00:44:07;;;;;;;0.40;0.40;;;;;;;-143.85;100.00;70650.75;5034377;28;20555;-87
2022/04/03 00:46:34;;;;;;;0.63;0.30;;;;;;;-143.85;100.00;70650.75;5034095;28;20025;-87
2022/04/03 00:49:00;;;;;;;1.50;0.45;;;;;;;-143.85;100.00;70650.75;5035751;28;20140;-88
2022/04/03 00:51:29;;;;;;;0.30;0.30;;;;;;;-143.85;100.00;70650.75;5034471;28;20087;-88
2022/04/03 00:53:55;;;;;;;0.30;0.30;;;;;;;-143.85;100.00;70650.75;5034006;28;20083;-86
2022/04/03 00:56:21;;;;;;;0.60;0.60;;;;;;;-143.85;100.00;70650.75;5034134;28;20021;-87
2022/04/03 00:58:48;;;;;;;0.20;0.20;;;;;;;-143.85;100.00;70650.75;5033972;28;20025;-87
2022/04/03 01:01:14;;;;;;;0.28;0.28;;;;;;;-143.85;100.00;70650.75;5033897;28;20091;-88
2022/04/03 01:03:39;;;;;;;0.20;0.20;;;;;;;-143.85;100.00;70650.75;5033771;28;20053;-87
2022/04/03 01:06:05;;;;;;;0.30;0.30;;;;;;;-143.85;100.00;70650.75;5034959;28;20029;-87
2022/04/03 01:08:34;;;;;;;0.20;0.20;;;;;;;-143.85;100.00;70650.75;5034699;28;20381;-87
2022/04/03 01:11:00;;;;;;;0.47;0.47;;;;;;;-143.85;100.00;70650.75;5033980;28;20473;-87
2022/04/03 01:13:25;;;;;;;0.95;0.32;;;;;;;-143.85;100.00;70650.75;5033773;28;20021;-88
2022/04/03 01:16:00;;;;;;;0.60;0.60;;;;;;;-143.85;100.00;70650.75;5034782;28;20021;-88
2022/04/03 01:18:27;;;;;;;0.28;0.28;;;;;;;-143.85;100.00;70650.75;5033522;28;20033;-89
2022/04/03 01:20:53;;;;;;;0.98;0.98;;;;;;;-143.85;100.00;70650.75;5034048;28;20013;-89
2022/04/03 01:23:23;;;;;;;0.30;0.30;;;;;;;-143.85;100.00;70650.75;5033635;28;20147;-87
2022/04/03 01:25:48;;;;;;;0.35;0.35;;;;;;;-143.85;100.00;70650.75;5033453;28;20021;-87
2022/04/03 01:28:14;;;;;;;0.20;0.20;;;;;;;-143.85;100.00;70650.75;5033393;28;20036;-88
2022/04/03 01:30:39;;;;;;;0.20;0.20;;;;;;;-143.85;100.00;70650.75;5034745;28;20021;-88
2022/04/03 01:33:05;;;;;;;0.20;0.20;;;;;;;-143.85;100.00;70650.75;5032533;28;20021;-87
2022/04/03 01:35:31;;;;;;;0.20;0.20;;;;;;;-143.85;100.00;70650.75;5033996;28;20033;-87
2022/04/03 01:37:56;;;;;;;0.20;0.20;;;;;;;-143.85;100.00;70650.75;5033418;28;20089;-87
2022/04/03 01:40:22;;;;;;;0.20;0.20;;;;;;;-143.85;100.00;70650.75;5033155;28;20022;-88
2022/04/03 01:42:47;;;;;;;0.45;0.45;;;;;;;-143.85;100.00;70650.75;5034379;28;20029;-87
2022/04/03 01:45:13;;;;;;;0.40;0.40;;;;;;;-143.85;100.00;70650.75;5034071;28;20052;-87
2022/04/03 01:47:38;;;;;;;0.20;0.20;;;;;;;-143.85;100.00;70650.75;5032908;28;20136;-87
2022/04/03 01:50:05;;;;;;;0.20;0.20;;;;;;;-143.85;100.00;70650.75;5032917;28;20021;-88
2022/04/03 01:52:30;;;;;;;0.20;0.20;;;;;;;-143.85;100.00;70650.75;5034180;28;20034;-87
2022/04/03 01:54:56;;;;;;;0.20;0.20;;;;;;;-143.85;100.00;70650.75;5033727;28;20392;-88
2022/04/03 01:57:21;;;;;;;0.45;0.32;;;;;;;-143.85;100.00;70650.75;5032926;28;20456;-87
2022/04/03 01:59:47;;;;;;;0.22;0.22;;;;;;;-143.85;100.00;70650.75;5033721;28;20140;-88
2022/04/03 02:02:12;;;;;;;0.20;0.20;;;;;;;-143.85;100.00;70650.75;5032727;28;20087;-87
2022/04/03 02:04:38;;;;;;;0.20;0.20;;;;;;;-143.85;100.00;70650.75;5032573;28;20025;-88
2022/04/03 02:07:04;;;;;;;0.28;0.28;;;;;;;-143.85;100.00;70650.75;5032786;28;20029;-87
2022/04/03 02:09:30;;;;;;;0.57;0.57;;;;;;;-143.85;100.00;70650.75;5032580;28;20059;-87
2022/04/03 02:11:57;;;;;;;0.20;0.20;;;;;;;-143.85;100.00;70650.75;5033813;28;20021;-88
2022/04/03 02:14:26;;;;;;;0.20;0.20;;;;;;;-143.85;100.00;70650.75;5032800;28;20029;-88
2022/04/03 02:16:57;;;;;;;0.20;0.20;;;;;;;-143.85;100.00;70650.75;5033480;28;20377;-87
2022/04/03 02:19:23;;;;;;;3.40;0.40;;;;;;;-143.85;100.00;70650.75;5032530;28;20029;-87
2022/04/03 02:21:48;;;;;;;0.47;0.47;;;;;;;-143.85;100.00;70650.75;5032672;28;20530;-87
2022/04/03 02:24:14;;;;;;;0.20;0.20;;;;;;;-143.85;100.00;70650.75;5032445;28;20021;-87
2022/04/03 02:26:40;;;;;;;0.30;0.30;;;;;;;-143.85;100.00;70650.75;5032277;28;20049;-87
2022/04/03 02:29:06;;;;;;;0.50;0.50;;;;;;;-143.85;100.00;70650.75;5032171;28;20056;-87
2022/04/03 02:31:31;;;;;;;0.20;0.20;;;;;;;-143.85;100.00;70650.75;5032489;28;20106;-86
2022/04/03 02:33:57;;;;;;;0.20;0.20;;;;;;;-143.85;100.00;70650.75;5032399;28;20429;-87
2022/04/03 02:36:23;;;;;;;0.20;0.20;;;;;;;-143.85;100.00;70650.75;5032272;28;20362;-87
2022/04/03 02:38:48;;;;;;;0.43;0.43;;;;;;;-143.85;100.00;70650.75;5032326;28;20056;-87
2022/04/03 02:41:14;;;;;;;0.20;0.20;;;;;;;-143.85;100.00;70650.75;5032233;28;20029;-87
2022/04/03 02:43:39;;;;;;;0.30;0.30;;;;;;;-143.85;100.00;70650.75;5033167;28;20032;-87
2022/04/03 02:46:05;;;;;;;0.85;0.85;;;;;;;-143.85;100.00;70650.75;5032283;28;20465;-87
2022/04/03 02:48:30;;;;;;;0.20;0.20;;;;;;;-143.85;100.00;70650.75;5031555;28;20053;-87
2022/04/03 02:50:56;;;;;;;0.20;0.20;;;;;;;-143.85;100.00;70650.75;5033314;28;20025;-87
2022/04/03 02:53:22;;;;;;;0.20;0.20;;;;;;;-143.85;100.00;70650.75;5031986;28;20460;-87
2022/04/03 02:55:48;;;;;;;0.60;0.60;;;;;;;-143.85;100.00;70650.75;5032958;28;20087;-86
2022/04/03 02:58:13;;;;;;;0.20;0.20;;;;;;;-143.85;100.00;70650.75;5032339;28;20030;-87
2022/04/03 03:00:39;;;;;;;0.20;0.20;;;;;;;-143.85;100.00;70650.75;5031773;28;20481;-87
2022/04/03 03:03:06;;;;;;;0.93;0.93;;;;;;;-143.85;100.00;70650.75;5032499;28;20052;-86
2022/04/03 03:05:32;;;;;;;0.35;0.35;;;;;;;-143.85;100.00;70650.75;5031952;28;20523;-86
2022/04/03 03:07:58;;;;;;;0.63;0.63;;;;;;;-143.85;100.00;70650.75;5031559;28;20022;-87
2022/04/03 03:10:24;;;;;;;0.50;0.50;;;;;;;-143.85;100.00;70650.75;5032046;28;20013;-87
2022/04/03 03:12:50;;;;;;;0.32;0.32;;;;;;;-143.85;100.00;70650.75;5031798;28;20118;-87
2022/04/03 03:15:16;;;;;;;0.40;0.40;;;;;;;-143.85;100.00;70650.75;5032040;28;20532;-87
2022/04/03 03:17:42;;;;;;;0.20;0.20;;;;;;;-143.85;100.00;70650.75;5031659;28;20123;-86
2022/04/03 03:20:08;;;;;;;0.20;0.20;;;;;;;-143.85;100.00;70650.75;5031713;28;20124;-87
2022/04/03 03:22:35;;;;;;;0.20;0.20;;;;;;;-143.85;100.00;70650.75;5032935;28;20111;-86
2022/04/03 03:25:01;;;;;;;0.20;0.20;;;;;;;-143.85;100.00;70650.75;5031690;28;20093;-87
2022/04/03 03:27:26;;;;;;;0.50;0.50;;;;;;;-143.85;100.00;70650.75;5031630;28;20030;-88
2022/04/03 03:29:52;;;;;;;0.20;0.20;;;;;;;-143.85;100.00;70650.75;5031674;28;20072;-86
2022/04/03 03:32:17;;;;;;;0.20;0.20;;;;;;;-143.85;100.00;70650.75;5031723;28;20488;-85
2022/04/03 03:34:43;;;;;;;0.30;0.30;;;;;;;-143.85;100.00;70650.75;5031633;28;20071;-87
2022/04/03 03:37:08;;;;;;;0.20;0.20;;;;;;;-143.85;100.00;70650.75;5033415;28;20025;-88
2022/04/03 03:39:34;;;;;;;0.20;0.20;;;;;;;-143.85;100.00;70650.75;5031823;28;20079;-86
2022/04/03 03:42:00;;;;;;;0.30;0.30;;;;;;;-143.85;100.00;70650.75;5031528;28;20021;-87
2022/04/03 03:44:25;;;;;;;0.30;0.30;;;;;;;-143.85;100.00;70650.75;5031485;28;20024;-86
2022/04/03 03:46:51;;;;;;;0.28;0.28;;;;;;;-143.85;100.00;70650.75;5031186;28;20024;-87
2022/04/03 03:49:16;;;;;;;0.75;0.75;;;;;;;-143.85;100.00;70650.75;5031837;28;20021;-87
2022/04/03 03:51:42;;;;;;;0.20;0.20;;;;;;;-143.85;100.00;70650.75;5031503;28;20026;-87
2022/04/03 03:54:08;;;;;;;0.32;0.32;;;;;;;-143.85;100.00;70650.75;5032183;28;20079;-87
2022/04/03 03:56:33;;;;;;;1.08;0.68;;;;;;;-143.85;100.00;70650.75;5034444;28;20373;-87
2022/04/03 03:58:59;;;;;;;0.20;0.20;;;;;;;-143.85;100.00;70650.75;5035303;28;20029;-87
2022/04/03 04:01:25;;;;;;;0.20;0.20;;;;;;;-143.85;100.00;70650.75;5035194;28;20452;-87
2022/04/03 04:03:50;;;;;;;0.20;0.20;;;;;;;-143.85;100.00;70650.75;5035340;28;20060;-87
2022/04/03 04:06:16;;;;;;;0.57;0.57;;;;;;;-143.85;100.00;70650.75;5035192;28;20487;-88
2022/04/03 04:08:42;;;;;;;0.20;0.20;;;;;;;-143.85;100.00;70650.75;5036143;28;20029;-86
2022/04/03 04:11:08;;;;;;;0.20;0.20;;;;;;;-143.85;100.00;70650.75;5035397;28;20032;-87
2022/04/03 04:13:34;;;;;;;0.20;0.20;;;;;;;-143.85;100.00;70650.75;5034631;28;20032;-87
2022/04/03 04:16:00;;;;;;;0.28;0.28;;;;;;;-143.85;100.00;70650.75;5034878;28;20021;-87
2022/04/03 04:18:26;;;;;;;0.20;0.20;;;;;;;-143.85;100.00;70650.75;5034630;28;20087;-87
2022/04/03 04:20:52;;;;;;;0.30;0.30;;;;;;;-143.85;100.00;70650.75;5036374;28;20103;-87
2022/04/03 04:23:18;;;;;;;0.20;0.20;;;;;;;-143.85;100.00;70650.75;5036659;28;20021;-87
2022/04/03 04:25:44;;;;;;;0.20;0.20;;;;;;;-143.85;100.00;70650.75;5037447;28;20056;-87
2022/04/03 04:28:10;;;;;;;0.40;0.40;;;;;;;-143.85;100.00;70650.75;5035364;28;20112;-90
2022/04/03 04:30:37;;;;;;;0.20;0.20;;;;;;;-143.85;100.00;70650.75;5034427;28;20508;-88
2022/04/03 04:33:02;;;;;;;1.80;1.70;;;;;;;-143.85;100.00;70650.75;5034797;28;20087;-88
2022/04/03 04:35:28;;;;;;;0.20;0.20;;;;;;;-143.85;100.00;70650.75;5036094;28;20550;-89
2022/04/03 04:37:54;;;;;;;1.08;1.08;;;;;;;-143.85;100.00;70650.75;5037136;28;20116;-87
2022/04/03 04:40:19;;;;;;;0.75;0.75;;;;;;;-143.85;100.00;70650.75;5034385;28;20457;-87
2022/04/03 04:42:44;;;;;;;0.20;0.20;;;;;;;-143.85;100.00;70650.75;5037047;28;20018;-87
2022/04/03 04:45:10;;;;;;;0.20;0.20;;;;;;;-143.85;100.00;70650.75;5034206;28;20163;-87
2022/04/03 04:47:37;;;;;;;0.20;0.20;;;;;;;-143.85;100.00;70650.75;5034917;28;20045;-87
2022/04/03 04:50:14;;;;;;;0.30;0.30;;;;;;;-143.85;100.00;70650.75;5034093;28;20116;-87
2022/04/03 04:52:40;;;;;;;0.20;0.20;;;;;;;-143.85;100.00;70650.75;5036798;28;20040;-89
2022/04/03 04:55:07;;;;;;;0.20;0.20;;;;;;;-143.85;100.00;70650.75;5039070;28;20022;-88
2022/04/03 04:57:33;;;;;;;0.30;0.30;;;;;;;-143.85;100.00;70650.75;5035933;28;20538;-89
2022/04/03 05:00:00;;;;;;;0.35;0.35;;;;;;;-143.85;100.00;70650.75;5036740;28;20083;-90
2022/04/03 05:02:26;;;;;;;0.40;0.40;;;;;;;-143.85;100.00;70650.75;5034413;28;20044;-88
2022/04/03 05:04:52;;;;;;;3.05;0.93;;;;;;;-143.85;100.00;70650.75;5036029;28;20022;-88
2022/04/03 05:07:17;;;;;;;0.10;0.10;;;;;;;-143.85;100.00;70650.75;5035792;28;20033;-88
2022/04/03 05:09:45;;;;;;;0.30;0.30;;;;;;;-143.85;100.00;70650.75;5038369;28;20025;-89
2022/04/03 05:12:12;;;;;;;0.13;0.13;;;;;;;-143.85;100.00;70650.75;5038193;28;20029;-90
2022/04/03 05:14:38;;;;;;;0.57;0.57;;;;;;;-143.85;100.00;70650.75;5016446;28;20022;-90
2022/04/03 05:17:05;;;;;;;1.55;0.77;;;;;;;-143.85;100.00;70650.75;5034499;28;20026;-88
2022/04/03 05:19:32;;;;;;;0.27;0.27;;;;;;;-143.85;100.00;70650.75;5036627;28;20112;-87
2022/04/03 05:21:58;;;;;;;0.10;0.10;;;;;;;-143.85;100.00;70650.75;5036209;28;20021;-86
2022/04/03 05:24:24;;;;;;;0.40;0.40;;;;;;;-143.85;100.00;70650.75;5040398;28;20450;-86
2022/04/03 05:26:50;;;;;;;0.30;0.30;;;;;;;-143.85;100.00;70650.75;5039587;28;20025;-86
2022/04/03 05:29:16;;;;;;;1.00;0.38;;;;;;;-143.85;100.00;70650.75;5034630;28;20025;-87
2022/04/03 05:31:42;;;;;;;0.20;0.20;;;;;;;-143.85;100.00;70650.75;5033633;28;20112;-85
2022/04/03 05:34:08;;;;;;;0.10;0.10;;;;;;;-143.85;100.00;70650.75;5051002;28;20024;-87
2022/04/03 05:36:34;;;;;;;0.20;0.20;;;;;;;-143.85;100.00;70650.75;5054123;28;20131;-89
2022/04/03 05:39:04;;;;;;;0.10;0.10;;;;;;;-143.85;100.00;70650.75;5055068;28;20013;-87
2022/04/03 05:41:38;;;;;;;0.10;0.10;;;;;;;-143.85;100.00;70650.75;5055631;28;20032;-87
2022/04/03 05:44:05;;;;;;;0.10;0.10;;;;;;;-143.85;100.00;70650.75;5052465;28;20017;-87
2022/04/03 05:46:30;;;;;;;0.20;0.20;;;;;;;-143.85;100.00;70650.75;5033502;28;20036;-86
2022/04/03 05:48:56;;;;;;;0.22;0.22;;;;;;;-143.85;100.00;70650.75;5031974;28;20057;-87
2022/04/03 05:51:21;;;;;;;0.15;0.15;;;;;;;-143.85;100.00;70650.75;5030286;28;20021;-86
2022/04/03 05:53:47;;;;;;;0.28;0.28;;;;;;;-143.85;100.00;70650.75;5032895;28;20022;-86
2022/04/03 05:56:13;;;;;;;1.88;1.08;;;;;;;-143.85;100.00;70650.75;5034409;28;20028;-85
2022/04/03 05:58:39;;;;;;;0.10;0.10;;;;;;;-143.85;100.00;70650.75;5034433;28;20029;-86
2022/04/03 06:01:04;;;;;;;0.20;0.20;;;;;;;-143.85;100.00;70650.75;5032790;28;20024;-87
2022/04/03 06:03:33;;;;;;;0.47;0.47;;;;;;;-143.85;100.00;70650.75;5034243;28;20099;-87
2022/04/03 06:06:00;;;;;;;0.45;0.45;;;;;;;-143.85;100.00;70650.75;5028575;28;20515;-86
2022/04/03 06:08:25;;;;;;;0.40;0.40;;;;;;;-143.85;100.00;70650.75;5031936;28;20021;-86
2022/04/03 06:10:51;;;;;;;0.17;0.17;;;;;;;-143.85;100.00;70650.75;5035102;28;20023;-86
2022/04/03 06:13:16;;;;;;;0.45;0.45;;;;;;;-143.85;100.00;70650.75;5041684;28;20022;-85
2022/04/03 06:15:46;;;;;;;0.47;0.47;;;;;;;-143.85;100.00;70650.75;5033595;28;20076;-87
2022/04/03 06:18:14;;;;;;;0.47;0.47;;;;;;;-143.85;100.00;70650.75;5031550;28;20492;-82
2022/04/03 06:20:40;;;;;;;0.17;0.17;;;;;;;-143.85;100.00;70650.75;5031903;28;20021;-85
2022/04/03 06:23:11;;;;;;;0.40;0.40;;;;;;;-143.85;100.00;70650.75;5032284;28;20127;-86
2022/04/03 06:25:37;;;;;;;0.35;0.35;;;;;;;-143.85;100.00;70650.75;5031336;28;20021;-84
2022/04/03 06:28:02;;;;;;;0.10;0.10;;;;;;;-143.85;100.00;70650.75;5031849;28;20241;-84
2022/04/03 06:30:28;;;;;;;0.55;0.55;;;;;;;-143.85;100.00;70650.75;5032502;28;20017;-87
2022/04/03 06:32:54;;;;;;;0.10;0.10;;;;;;;-143.85;100.00;70650.75;5032797;28;20033;-87
2022/04/03 06:35:20;;;;;;;0.40;0.40;;;;;;;-143.85;100.00;70650.75;5032851;28;20041;-88
2022/04/03 06:37:46;;;;;;;0.10;0.10;;;;;;;-143.85;100.00;70650.75;5032781;28;20036;-88
2022/04/03 06:40:11;;;;;;;0.10;0.10;;;;;;;-143.85;100.00;70650.75;5033456;28;20029;-88
2022/04/03 06:42:37;;;;;;;0.00;0.00;;;;;;;-143.85;100.00;70650.75;5032291;28;20029;-88
2022/04/03 06:45:03;;;;;;;0.00;0.00;;;;;;;-143.85;100.00;70650.75;5032817;28;20067;-88
2022/04/03 06:47:31;;;;;;;0.10;0.10;;;;;;;-143.85;100.00;70650.75;5032497;28;20060;-89
2022/04/03 06:49:57;;;;;;;;;;;;;;;-143.85;100.00;70650.75;5033172;28;20021;-87
2022/04/03 06:52:22;;;;;;;2.13;0.93;;;;;;;-143.85;100.00;70650.75;5034374;28;19905;-85
2022/04/03 06:54:47;;;;;;;0.30;0.30;;;;;;;-143.85;100.00;70650.75;5031689;28;20026;-84
2022/04/03 06:57:14;;;;;;;0.85;0.30;;;;;;;-143.85;100.00;70650.75;5033184;28;20017;-83
2022/04/03 06:59:41;;;;;;;0.10;0.10;;;;;;;-143.85;100.00;70650.75;5031522;28;20025;-83
2022/04/03 07:02:07;;;;;;;0.03;0.03;;;;;;;-143.85;100.00;70650.75;5031272;28;20033;-83
2022/04/03 07:04:33;;;;;;;0.10;0.10;;;;;;;-143.85;100.00;70650.75;5032846;28;20021;-83
2022/04/03 07:06:59;;;;;;;0.10;0.10;;;;;;;-143.85;100.00;70650.75;5031821;28;20025;-88
2022/04/03 07:09:24;;;;;;;0.10;0.10;;;;;;;-143.85;100.00;70650.75;5032247;28;20018;-87
2022/04/03 07:11:50;;;;;;;0.10;0.10;;;;;;;-143.85;100.00;70650.75;5032927;28;20527;-89
2022/04/03 07:14:15;;;;;;;0.30;0.30;;;;;;;-143.85;100.00;70650.75;5031860;28;20552;-88
2022/04/03 07:16:40;;;;;;;0.10;0.10;;;;;;;-143.85;100.00;70650.75;5032120;28;20080;-88
2022/04/03 07:19:06;;;;;;;0.10;0.10;;;;;;;-143.85;100.00;70650.75;5032453;28;20018;-87
2022/04/03 07:21:32;;;;;;;0.10;0.10;;;;;;;-143.85;100.00;70650.75;5024645;28;20018;-88
2022/04/03 07:23:58;;;;;;;0.10;0.10;;;;;;;-143.85;100.00;70650.75;5031193;28;20017;-83
2022/04/03 07:26:23;;;;;;;0.20;0.20;;;;;;;-143.85;100.00;70650.75;5032738;28;20027;-83
2022/04/03 07:28:49;;;;;;;0.57;0.52;;;;;;;-143.85;100.00;70650.75;5032466;28;20017;-82
2022/04/03 07:31:14;;;;;;;0.55;0.55;;;;;;;-143.85;100.00;70650.75;5031081;28;20022;-81
2022/04/03 07:33:40;;;;;;;0.20;0.20;;;;;;;-143.85;100.00;70650.75;5026427;28;20535;-84
2022/04/03 07:36:05;;;;;;;0.20;0.20;;;;;;;-143.85;100.00;70650.75;5016806;28;20021;-84
2022/04/03 07:38:31;;;;;;;0.20;0.20;;;;;;;-143.85;100.00;70650.75;5016241;28;20030;-84
2022/04/03 07:40:56;;;;;;;0.88;0.45;;;;;;;-143.85;100.00;70650.75;5015502;28;20489;-83
2022/04/03 07:43:23;;;;;;;0.20;0.20;;;;;;;-143.85;100.00;70650.75;5033405;28;20025;-85
2022/04/03 07:45:49;;;;;;;0.20;0.20;;;;;;;-143.85;100.00;70650.75;5035048;28;20642;-83
2022/04/03 07:48:19;;;;;;;0.20;0.20;;;;;;;-143.85;100.00;70650.75;5034429;28;20056;-84
2022/04/03 07:50:44;;;;;;;0.20;0.20;;;;;;;-143.85;100.00;70650.75;5034931;28;20112;-82
2022/04/03 07:53:10;;;;;;;0.20;0.20;;;;;;;-143.85;100.00;70650.75;5034791;28;20060;-83
2022/04/03 07:55:35;;;;;;;0.20;0.20;;;;;;;-143.85;100.00;70650.75;5034899;28;20449;-82
2022/04/03 07:58:01;;;;;;;0.10;0.10;;;;;;;-143.85;100.00;70650.75;5034824;28;20441;-82
2022/04/03 08:00:26;;;;;;;0.10;0.10;;;;;;;-143.85;100.00;70650.75;5034656;28;20029;-83
2022/04/03 08:02:52;;;;;;;0.20;0.20;;;;;;;-143.85;100.00;70650.75;5034233;28;20079;-82
2022/04/03 08:05:17;;;;;;;0.13;0.13;;;;;;;-143.85;100.00;70650.75;5034845;28;20028;-82
2022/04/03 08:07:45;;;;;;;0.38;0.38;;;;;;;-143.85;100.00;70650.75;5038362;28;20017;-82
2022/04/03 08:10:13;;;;;;;0.30;0.30;;;;;;;-143.85;100.00;70650.75;5034593;28;20037;-82
2022/04/03 08:12:40;;;;;;;0.10;0.10;;;;;;;-143.85;100.00;70650.75;5034510;28;20056;-83
2022/04/03 08:15:08;;;;;;;0.10;0.10;;;;;;;-143.85;100.00;70650.75;5034602;28;20029;-83
2022/04/03 08:17:34;;;;;;;0.10;0.10;;;;;;;-143.85;100.00;70650.75;5034260;28;20370;-83
2022/04/03 08:20:03;;;;;;;0.63;0.50;;;;;;;-143.85;100.00;70650.75;5034562;28;20481;-83
2022/04/03 08:22:29;;;;;;;0.20;0.20;;;;;;;-143.85;100.00;70650.75;5034514;28;20029;-89
2022/04/03 08:24:54;;;;;;;0.17;0.17;;;;;;;-143.85;100.00;70650.75;5029901;28;20030;-85
2022/04/03 08:27:20;;;;;;;0.10;0.10;;;;;;;-143.85;100.00;70650.75;5034153;28;20469;-85
2022/04/03 08:29:46;;;;;;;0.10;0.10;;;;;;;-143.85;100.00;70650.75;5034546;28;20025;-85
2022/04/03 08:32:13;;;;;;;0.10;0.10;;;;;;;-143.85;100.00;70650.75;5034561;28;20021;-85
2022/04/03 08:34:39;;;;;;;0.10;0.10;;;;;;;-143.85;100.00;70650.75;5034301;28;20032;-87
2022/04/03 08:37:05;;;;;;;0.10;0.10;;;;;;;-143.85;100.00;70650.75;5034544;28;20033;-84
2022/04/03 08:39:30;;;;;;;0.10;0.10;;;;;;;-143.85;100.00;70650.75;5034501;28;20033;-84
2022/04/03 08:41:56;;;;;;;0.10;0.10;;;;;;;-143.85;100.00;70650.75;5032323;28;20053;-84
2022/04/03 08:44:22;;;;;;;0.10;0.10;;;;;;;-143.85;100.00;70650.75;5034287;28;20029;-84
2022/04/03 08:46:49;;;;;;;0.20;0.20;;;;;;;-143.85;100.00;70650.75;5034960;28;20029;-86
2022/04/03 08:49:16;;;;;;;0.10;0.10;;;;;;;-143.85;100.00;70650.75;5035270;28;20042;-84
2022/04/03 08:51:42;;;;;;;0.25;0.25;;;;;;;-143.85;100.00;70650.75;5031142;28;20224;-85
2022/04/03 08:54:09;;;;;;;0.10;0.10;;;;;;;-143.85;100.00;70650.75;5014366;28;20470;-85
2022/04/03 08:56:35;;;;;;;0.10;0.10;;;;;;;-143.85;100.00;70650.75;5014159;28;20079;-85
2022/04/03 08:59:00;;;;;;;0.10;0.10;;;;;;;-143.85;100.00;70650.75;5013878;28;20034;-84
2022/04/03 09:01:26;;;;;;;0.13;0.13;;;;;;;-143.85;100.00;70650.75;5014068;28;20022;-84
2022/04/03 09:03:51;;;;;;;0.10;0.10;;;;;;;-143.85;100.00;70650.75;5021062;28;20021;-84
2022/04/03 09:06:19;;;;;;;0.10;0.10;;;;;;;-143.85;100.00;70650.75;5039999;28;20021;-83
